Time;durP1;ratioP1;P1;durP2;ratioP2;P2;SDS_P1;SDS_P2;PMS_P1;PMS_P2;Temp;Humidity;BMP_temperature;BMP_pressure;BME280_temperature;BME280_humidity;BME280_pressure;Samples;Min_cycle;Max_cycle;Signal;HPM_P1;HPM_P2
2022/04/21 00:01:34;;;;;;;3.35;1.40;;;8.60;91.20;;;;;;5061232;28;20040;-75
2022/04/21 00:03:59;;;;;;;3.50;1.55;;;8.60;91.40;;;;;;5060997;28;20081;-75
2022/04/21 00:06:25;;;;;;;3.17;1.25;;;8.50;91.60;;;;;;5060600;28;20047;-75
2022/04/21 00:08:50;;;;;;;2.72;1.17;;;8.40;91.80;;;;;;5061399;28;20033;-75
2022/04/21 00:11:16;;;;;;;3.15;1.58;;;8.40;91.80;;;;;;5044766;28;20028;-75
2022/04/21 00:13:42;;;;;;;2.83;1.45;;;8.30;91.90;;;;;;5058925;28;20703;-75
2022/04/21 00:16:08;;;;;;;2.22;1.20;;;8.30;92.00;;;;;;5042917;28;20405;-75
2022/04/21 00:18:33;;;;;;;3.42;1.52;;;8.30;92.20;;;;;;5061406;28;20043;-75
2022/04/21 00:21:01;;;;;;;3.75;1.60;;;8.30;92.20;;;;;;5060205;28;20048;-75
2022/04/21 00:23:27;;;;;;;4.22;2.08;;;8.30;92.40;;;;;;5060826;28;20052;-75
2022/04/21 00:26:01;;;;;;;2.10;1.33;;;8.40;92.40;;;;;;5061841;28;20079;-75
2022/04/21 00:28:30;;;;;;;2.80;1.55;;;8.30;92.70;;;;;;5044357;28;20040;-75
2022/04/21 00:30:55;;;;;;;3.47;1.25;;;8.20;93.00;;;;;;5044583;28;20075;-75
2022/04/21 00:33:21;;;;;;;4.72;1.33;;;8.20;92.90;;;;;;5060614;28;20131;-75
2022/04/21 00:35:48;;;;;;;3.10;1.45;;;8.10;93.00;;;;;;5060294;28;20051;-75
2022/04/21 00:38:13;;;;;;;3.85;1.80;;;8.10;93.30;;;;;;5063256;28;20056;-75
2022/04/21 00:40:39;;;;;;;5.35;2.03;;;8.00;93.50;;;;;;5064019;28;20051;-75
2022/04/21 00:43:05;;;;;;;2.33;1.45;;;8.00;93.80;;;;;;5063578;28;20051;-75
2022/04/21 00:45:32;;;;;;;3.00;1.35;;;7.90;94.10;;;;;;5047767;28;20078;-75
2022/04/21 00:47:58;;;;;;;2.83;1.65;;;7.90;94.20;;;;;;5064960;28;20032;-75
2022/04/21 00:50:28;;;;;;;3.05;1.52;;;7.80;94.30;;;;;;5047944;28;20043;-75
2022/04/21 00:52:55;;;;;;;3.88;1.60;;;7.80;94.60;;;;;;5059923;28;20062;-75
2022/04/21 00:55:22;;;;;;;4.60;2.08;;;7.70;95.00;;;;;;5065617;28;20458;-75
2022/04/21 00:57:50;;;;;;;5.25;2.08;;;7.70;95.10;;;;;;5065660;28;20456;-75
2022/04/21 01:00:16;;;;;;;4.05;1.70;;;7.70;95.30;;;;;;5065218;28;20134;-75
2022/04/21 01:02:46;;;;;;;4.55;1.88;;;7.70;95.20;;;;;;5062785;28;20050;-75
2022/04/21 01:05:32;;;;;;;3.13;1.77;;;7.70;95.60;;;;;;5065670;28;20067;-75
2022/04/21 01:08:03;;;;;;;3.20;1.23;;;7.70;95.50;;;;;;5047955;28;20098;-75
2022/04/21 01:10:30;;;;;;;4.53;1.75;;;7.70;95.90;;;;;;5048287;28;20043;-75
2022/04/21 01:12:58;;;;;;;3.63;1.63;;;7.60;95.70;;;;;;5064847;28;20565;-75
2022/04/21 01:15:24;;;;;;;4.53;2.00;;;7.60;95.60;;;;;;5046631;28;20402;-75
2022/04/21 01:17:52;;;;;;;4.95;1.83;;;7.60;95.70;;;;;;5063365;28;20045;-75
2022/04/21 01:20:19;;;;;;;3.60;1.98;;;7.50;95.70;;;;;;5064699;28;20041;-75
2022/04/21 01:22:46;;;;;;;2.97;1.80;;;7.50;95.90;;;;;;5061312;28;20498;-75
2022/04/21 01:25:11;;;;;;;2.97;1.38;;;7.40;95.90;;;;;;5047963;28;20036;-75
2022/04/21 01:27:38;;;;;;;3.03;1.23;;;7.30;96.20;;;;;;5063525;28;20039;-75
2022/04/21 01:30:05;;;;;;;4.53;1.80;;;7.30;96.30;;;;;;5061789;28;20079;-75
2022/04/21 01:32:35;;;;;;;8.60;1.63;;;7.30;96.50;;;;;;5058964;28;20475;-75
2022/04/21 01:35:05;;;;;;;4.38;1.88;;;7.20;96.70;;;;;;5063097;28;20635;-75
2022/04/21 01:41:08;;;;;;;4.30;1.77;;;7.20;96.90;;;;;;5078180;28;20056;-75
2022/04/21 01:43:06;;;;;;;9.43;2.33;;;7.20;96.90;;;;;;5061241;28;20049;-75
2022/04/21 01:45:33;;;;;;;4.75;1.92;;;7.20;97.00;;;;;;5064629;28;20139;-75
2022/04/21 01:47:58;;;;;;;5.05;1.92;;;7.20;96.90;;;;;;5045692;28;20039;-75
2022/04/21 01:50:25;;;;;;;3.53;1.67;;;7.20;96.90;;;;;;5063971;28;20781;-75
2022/04/21 01:52:51;;;;;;;5.55;2.10;;;7.20;96.90;;;;;;5063216;28;20055;-75
2022/04/21 01:55:17;;;;;;;3.72;1.70;;;7.10;97.10;;;;;;5046356;28;20040;-75
2022/04/21 01:57:42;;;;;;;4.03;2.30;;;7.10;97.60;;;;;;5061448;28;20044;-75
2022/04/21 02:00:09;;;;;;;4.70;2.33;;;7.10;97.50;;;;;;5064392;28;20111;-75
2022/04/21 02:02:34;;;;;;;4.82;2.60;;;7.20;97.60;;;;;;5046291;28;20481;-75
2022/04/21 02:05:01;;;;;;;7.35;2.15;;;7.20;97.80;;;;;;5063415;28;20047;-75
2022/04/21 02:07:27;;;;;;;4.70;2.03;;;7.20;98.00;;;;;;5062150;28;20036;-75
2022/04/21 02:09:56;;;;;;;4.30;2.35;;;7.20;98.10;;;;;;5062398;28;20040;-75
2022/04/21 02:12:23;;;;;;;4.43;2.17;;;7.30;98.20;;;;;;5061867;28;20044;-75
2022/04/21 02:14:49;;;;;;;6.22;2.45;;;7.30;98.30;;;;;;5046863;28;20110;-75
2022/04/21 02:17:15;;;;;;;3.28;1.73;;;7.30;98.40;;;;;;5063248;28;20047;-75
2022/04/21 02:19:41;;;;;;;5.20;2.80;;;7.40;98.00;;;;;;5062280;28;20523;-75
2022/04/21 02:22:07;;;;;;;5.20;2.33;;;7.40;98.20;;;;;;5045971;28;20512;-75
2022/04/21 02:24:32;;;;;;;3.67;1.90;;;7.50;97.80;;;;;;5046318;28;20036;-75
2022/04/21 02:26:58;;;;;;;3.30;2.13;;;7.50;98.00;;;;;;5046090;28;20051;-75
2022/04/21 02:29:24;;;;;;;5.82;2.35;;;7.50;97.80;;;;;;5060891;28;20040;-75
2022/04/21 02:31:49;;;;;;;4.15;2.03;;;7.60;98.20;;;;;;5059572;28;20068;-75
2022/04/21 02:34:15;;;;;;;3.40;2.17;;;7.50;97.80;;;;;;5061775;28;20072;-75
2022/04/21 02:36:41;;;;;;;3.47;2.05;;;7.50;97.70;;;;;;5061241;28;21078;-75
2022/04/21 02:39:06;;;;;;;5.25;2.58;;;7.60;97.80;;;;;;5062387;28;20070;-75
2022/04/21 02:41:32;;;;;;;4.50;2.08;;;7.60;97.70;;;;;;5038841;28;20469;-75
2022/04/21 02:43:59;;;;;;;3.20;2.00;;;7.60;97.60;;;;;;5049346;28;20033;-75
2022/04/21 02:46:30;;;;;;;6.05;2.20;;;7.60;97.50;;;;;;5048627;28;20043;-75
2022/04/21 02:48:56;;;;;;;3.85;2.17;;;7.60;97.90;;;;;;5063251;28;20055;-75
2022/04/21 02:51:22;;;;;;;5.40;1.95;;;7.60;97.80;;;;;;5060599;28;20035;-75
2022/04/21 02:59:16;;;;;;;5.18;2.20;;;7.60;97.70;;;;;;5061799;28;20052;-75
2022/04/21 03:01:42;;;;;;;3.50;1.73;;;7.50;97.70;;;;;;5060046;28;20187;-75
2022/04/21 03:04:07;;;;;;;4.55;2.47;;;7.60;97.60;;;;;;5046559;28;20032;-75
2022/04/21 03:06:33;;;;;;;4.22;2.05;;;7.60;97.80;;;;;;5044472;28;20037;-75
2022/04/21 03:08:58;;;;;;;3.55;2.08;;;7.50;97.80;;;;;;5046371;28;20028;-75
2022/04/21 03:11:25;;;;;;;3.97;2.63;;;7.50;97.80;;;;;;5061049;28;20028;-75
2022/04/21 03:13:50;;;;;;;6.80;2.13;;;7.50;97.90;;;;;;5045639;28;20036;-75
2022/04/21 03:16:16;;;;;;;5.32;2.60;;;7.50;98.00;;;;;;5044557;28;20032;-75
2022/04/21 03:18:41;;;;;;;5.35;2.80;;;7.50;97.90;;;;;;5045260;28;20043;-75
2022/04/21 03:26:35;;;;;;;5.32;2.17;;;7.50;98.10;;;;;;5060862;28;20127;-75
2022/04/21 03:29:00;;;;;;;5.00;2.60;;;7.50;98.20;;;;;;5061031;28;20119;-75
2022/04/21 03:31:26;;;;;;;5.97;2.60;;;7.50;98.00;;;;;;5074890;28;20149;-75
2022/04/21 03:33:52;;;;;;;6.22;2.58;;;7.40;98.30;;;;;;5060777;28;20076;-75
2022/04/21 03:36:18;;;;;;;4.32;2.30;;;7.40;98.30;;;;;;5061036;28;20040;-75
2022/04/21 03:38:43;;;;;;;6.15;2.10;;;7.40;98.40;;;;;;5061766;28;20048;-75
2022/04/21 03:41:09;;;;;;;4.40;2.00;;;7.40;98.50;;;;;;5045636;28;20052;-75
2022/04/21 03:43:35;;;;;;;4.22;2.05;;;7.40;98.50;;;;;;5060407;28;20059;-75
2022/04/21 03:46:00;;;;;;;3.45;2.22;;;7.30;98.50;;;;;;5046146;28;20028;-75
2022/04/21 03:48:26;;;;;;;4.15;2.50;;;7.30;98.60;;;;;;5062078;28;20106;-75
2022/04/21 03:50:52;;;;;;;5.28;2.55;;;7.30;98.70;;;;;;5061849;28;20793;-75
2022/04/21 03:53:17;;;;;;;4.63;2.35;;;7.20;98.80;;;;;;5059171;28;20610;-75
2022/04/21 03:55:43;;;;;;;5.13;2.20;;;7.30;99.10;;;;;;5061498;28;20044;-75
2022/04/21 03:58:08;;;;;;;3.95;1.88;;;7.20;99.10;;;;;;5045844;28;20040;-75
2022/04/21 04:00:34;;;;;;;5.60;2.53;;;7.20;99.30;;;;;;5062482;28;20446;-75
2022/04/21 04:03:00;;;;;;;6.55;2.78;;;7.10;99.30;;;;;;5060214;28;21644;-75
2022/04/21 04:05:25;;;;;;;5.53;2.85;;;7.10;99.50;;;;;;5061565;28;20064;-75
2022/04/21 04:10:53;;;;;;;5.28;2.53;;;7.10;99.50;;;;;;5061822;28;20056;-75
2022/04/21 04:13:22;;;;;;;4.25;2.10;;;7.00;99.70;;;;;;5064409;28;20501;-75
2022/04/21 04:15:49;;;;;;;5.35;2.75;;;7.00;99.90;;;;;;5048520;28;20079;-75
2022/04/21 04:18:22;;;;;;;6.85;3.15;;;7.00;99.90;;;;;;5065506;28;20600;-75
2022/04/21 04:20:48;;;;;;;5.63;2.38;;;7.00;99.90;;;;;;5062453;28;20048;-75
2022/04/21 04:23:15;;;;;;;4.18;2.17;;;7.10;99.90;;;;;;5063706;28;20045;-75
2022/04/21 04:25:41;;;;;;;6.05;2.28;;;7.10;99.90;;;;;;5066471;28;20040;-75
2022/04/21 04:28:06;;;;;;;4.43;2.13;;;7.10;99.90;;;;;;5065168;28;20044;-75
2022/04/21 04:30:32;;;;;;;5.75;2.35;;;7.10;99.90;;;;;;5064414;28;20139;-75
2022/04/21 04:32:58;;;;;;;3.22;2.00;;;7.10;99.80;;;;;;5064234;28;20052;-75
2022/04/21 04:35:27;;;;;;;4.72;2.50;;;7.00;99.90;;;;;;5065287;28;20028;-75
2022/04/21 04:37:53;;;;;;;5.32;3.03;;;7.00;99.90;;;;;;5045573;28;20060;-75
2022/04/21 04:40:21;;;;;;;5.22;2.63;;;7.10;99.90;;;;;;5048479;28;20059;-75
2022/04/21 04:42:47;;;;;;;4.95;2.42;;;7.10;99.90;;;;;;5064883;28;20079;-75
2022/04/21 04:47:57;;;;;;;4.45;2.30;;;7.10;99.90;;;;;;5060400;28;20402;-75
2022/04/21 04:50:23;;;;;;;4.72;2.47;;;7.10;99.90;;;;;;5065110;28;20029;-75
2022/04/21 04:52:48;;;;;;;4.95;1.85;;;7.10;99.90;;;;;;5062159;28;20675;-75
2022/04/21 04:55:14;;;;;;;6.22;3.25;;;7.00;99.90;;;;;;5064269;28;20098;-75
2022/04/21 04:57:40;;;;;;;4.63;2.53;;;7.00;99.90;;;;;;5065017;28;20036;-75
2022/04/21 05:00:08;;;;;;;5.97;2.88;;;7.00;99.90;;;;;;5063611;28;20028;-75
2022/04/21 05:02:34;;;;;;;5.78;3.00;;;7.00;99.90;;;;;;5064427;28;20051;-75
2022/04/21 05:04:59;;;;;;;5.50;2.72;;;7.00;99.90;;;;;;5063855;28;21029;-75
2022/04/21 05:07:25;;;;;;;5.68;2.70;;;7.00;99.90;;;;;;5063932;28;20035;-75
2022/04/21 05:09:51;;;;;;;5.90;3.38;;;7.10;99.90;;;;;;5049810;28;20106;-75
2022/04/21 05:12:16;;;;;;;5.15;2.50;;;7.10;99.90;;;;;;5063559;28;20598;-75
2022/04/21 05:14:42;;;;;;;4.93;2.45;;;7.10;99.90;;;;;;5064171;28;20478;-75
2022/04/21 05:17:08;;;;;;;5.05;2.80;;;7.10;99.90;;;;;;5064735;28;20056;-75
2022/04/21 05:19:33;;;;;;;5.32;2.58;;;7.20;99.90;;;;;;5047349;28;20071;-75
2022/04/21 05:22:04;;;;;;;6.68;2.85;;;7.20;99.90;;;;;;5061834;28;20051;-75
2022/04/21 05:24:31;;;;;;;4.15;2.03;;;7.20;99.90;;;;;;5062686;28;20028;-75
2022/04/21 05:26:57;;;;;;;4.22;2.28;;;7.20;99.90;;;;;;5044254;28;20037;-75
2022/04/21 05:32:08;;;;;;;7.72;2.78;;;7.30;99.90;;;;;;5062581;28;20048;-75
2022/04/21 05:34:34;;;;;;;4.80;2.58;;;7.30;99.90;;;;;;5064377;28;20123;-75
2022/04/21 05:37:01;;;;;;;5.55;2.80;;;7.40;99.90;;;;;;5061814;28;20144;-75
2022/04/21 05:39:28;;;;;;;5.15;2.42;;;7.40;99.90;;;;;;5062266;28;20045;-75
2022/04/21 05:41:55;;;;;;;3.53;1.90;;;7.40;99.90;;;;;;5062606;28;20170;-75
2022/04/21 05:44:21;;;;;;;4.22;2.10;;;7.40;99.90;;;;;;5063016;28;20036;-75
2022/04/21 05:46:47;;;;;;;4.20;2.05;;;7.40;99.90;;;;;;5064532;28;20066;-75
2022/04/21 05:49:13;;;;;;;3.15;1.98;;;7.50;99.90;;;;;;5061428;28;20040;-75
2022/04/21 05:51:39;;;;;;;4.22;2.25;;;7.50;99.90;;;;;;5062674;28;20047;-75
2022/04/21 05:54:06;;;;;;;7.47;2.45;;;7.50;99.90;;;;;;5046339;28;20414;-75
2022/04/21 05:56:33;;;;;;;6.55;2.42;;;7.50;99.90;;;;;;5063919;28;20032;-75
2022/04/21 05:58:59;;;;;;;4.72;1.90;;;7.60;99.90;;;;;;5046944;28;20059;-75
2022/04/21 06:01:25;;;;;;;3.13;1.80;;;7.60;99.90;;;;;;5060881;28;20071;-75
2022/04/21 06:03:52;;;;;;;6.55;2.15;;;7.70;99.70;;;;;;5061598;28;20116;-75
2022/04/21 06:06:18;;;;;;;4.28;2.35;;;7.70;99.80;;;;;;5045662;28;20297;-75
2022/04/21 06:08:44;;;;;;;3.15;1.40;;;7.70;99.60;;;;;;5063763;28;20040;-75
2022/04/21 06:11:13;;;;;;;3.67;1.83;;;7.80;99.10;;;;;;5047475;28;20162;-75
2022/04/21 06:13:40;;;;;;;3.83;1.65;;;7.80;98.60;;;;;;5062185;28;20040;-75
2022/04/21 06:16:07;;;;;;;3.58;1.70;;;7.90;98.40;;;;;;5061324;28;20056;-75
2022/04/21 06:18:32;;;;;;;3.58;1.77;;;8.00;98.00;;;;;;5064097;28;20071;-75
2022/04/21 06:20:58;;;;;;;5.63;1.77;;;8.00;97.80;;;;;;5059438;28;20067;-75
2022/04/21 06:23:24;;;;;;;5.63;1.88;;;8.10;97.40;;;;;;5060392;28;20036;-75
2022/04/21 06:25:53;;;;;;;3.38;1.52;;;8.10;97.30;;;;;;5045866;28;20131;-81
2022/04/21 06:28:19;;;;;;;1.85;1.05;;;8.20;97.10;;;;;;5044410;28;20115;-75
2022/04/21 06:30:45;;;;;;;3.88;1.67;;;8.20;96.80;;;;;;5063473;28;20124;-75
2022/04/21 06:33:10;;;;;;;3.58;1.55;;;8.30;96.50;;;;;;5059396;28;20627;-75
2022/04/21 06:35:36;;;;;;;2.20;1.17;;;8.40;96.20;;;;;;5045440;28;20577;-75
2022/04/21 06:38:02;;;;;;;2.35;1.10;;;8.40;95.20;;;;;;5065521;28;20063;-75
2022/04/21 06:40:27;;;;;;;2.72;1.42;;;8.50;95.20;;;;;;5063357;28;20040;-75
2022/04/21 06:42:53;;;;;;;3.30;1.55;;;8.60;95.00;;;;;;5042718;28;20040;-75
2022/04/21 06:48:03;;;;;;;2.50;1.30;;;8.80;94.60;;;;;;5059192;28;21572;-76
2022/04/21 06:50:30;;;;;;;1.88;1.02;;;8.90;94.10;;;;;;5060187;28;20049;-76
2022/04/21 06:52:56;;;;;;;2.10;0.93;;;9.00;93.60;;;;;;5038465;28;20432;-76
2022/04/21 06:55:21;;;;;;;2.97;1.55;;;9.10;93.00;;;;;;5044491;28;20040;-76
2022/04/21 06:57:47;;;;;;;1.95;0.98;;;9.20;93.10;;;;;;5060201;28;20037;-76
2022/04/21 07:00:13;;;;;;;2.22;0.88;;;9.30;93.00;;;;;;5059011;28;20128;-76
2022/04/21 07:02:41;;;;;;;4.35;1.30;;;9.40;93.00;;;;;;5043656;28;20032;-76
2022/04/21 07:05:13;;;;;;;2.53;1.08;;;9.50;92.50;;;;;;5058009;28;20067;-75
2022/04/21 07:07:40;;;;;;;2.88;1.10;;;9.50;91.70;;;;;;5056003;28;20028;-75
2022/04/21 07:10:07;;;;;;;1.88;1.08;;;9.60;91.40;;;;;;5061275;28;20076;-75
2022/04/21 07:12:34;;;;;;;1.70;1.00;;;9.60;91.30;;;;;;5043434;28;20515;-75
2022/04/21 07:15:02;;;;;;;1.92;0.90;;;9.70;91.00;;;;;;5044256;28;20048;-75
2022/04/21 07:17:27;;;;;;;2.53;1.17;;;9.70;90.80;;;;;;5038398;28;20044;-75
2022/04/21 07:19:53;;;;;;;1.92;1.17;;;9.80;90.80;;;;;;5060434;28;20063;-75
2022/04/21 07:22:26;;;;;;;2.70;1.15;;;9.80;90.40;;;;;;5060050;28;20052;-75
2022/04/21 07:24:52;;;;;;;2.05;1.00;;;9.90;89.60;;;;;;5043152;28;20036;-78
2022/04/21 07:27:18;;;;;;;2.25;0.80;;;9.90;89.20;;;;;;5060209;28;20035;-79
2022/04/21 07:29:43;;;;;;;2.03;1.00;;;10.00;88.50;;;;;;5061794;28;20036;-75
2022/04/21 07:32:10;;;;;;;3.05;0.98;;;10.00;88.00;;;;;;5047136;28;20071;-75
2022/04/21 07:34:36;;;;;;;2.00;1.10;;;10.10;88.40;;;;;;5062912;28;20127;-75
2022/04/21 07:37:02;;;;;;;1.45;0.70;;;10.10;88.50;;;;;;5063506;28;20554;-75
2022/04/21 07:39:28;;;;;;;2.70;1.00;;;10.10;88.70;;;;;;5050565;28;20127;-75
2022/04/21 07:41:54;;;;;;;1.55;0.90;;;10.20;89.30;;;;;;5050466;28;20052;-75
2022/04/21 07:44:20;;;;;;;1.65;1.10;;;10.20;89.10;;;;;;5067275;28;20401;-75
2022/04/21 07:46:45;;;;;;;2.83;1.20;;;10.20;88.60;;;;;;5048407;28;20047;-76
2022/04/21 07:53:13;;;;;;;2.08;0.93;;;10.30;87.40;;;;;;5065273;28;20052;-76
2022/04/21 07:54:40;;;;;;;2.85;0.88;;;10.50;87.80;;;;;;5065264;28;20387;-76
2022/04/21 07:57:06;;;;;;;2.90;0.75;;;10.50;85.90;;;;;;5062302;28;20044;-75
2022/04/21 07:59:31;;;;;;;1.83;0.95;;;10.60;86.10;;;;;;5062228;28;20032;-76
2022/04/21 08:01:57;;;;;;;1.73;0.88;;;10.60;85.00;;;;;;5061836;28;20041;-75
2022/04/21 08:04:22;;;;;;;1.60;0.90;;;10.70;84.10;;;;;;5062003;28;20035;-75
2022/04/21 08:06:49;;;;;;;2.05;1.02;;;10.70;85.00;;;;;;5057163;28;20143;-76
2022/04/21 08:09:14;;;;;;;4.35;1.27;;;10.80;84.40;;;;;;5044941;28;20033;-76
2022/04/21 08:11:40;;;;;;;1.60;0.73;;;10.80;84.70;;;;;;5059682;28;20375;-76
2022/04/21 08:14:05;;;;;;;1.85;1.23;;;10.80;84.30;;;;;;5061201;28;20064;-76
2022/04/21 08:16:32;;;;;;;2.00;0.75;;;10.90;84.30;;;;;;5060997;28;20507;-76
2022/04/21 08:18:59;;;;;;;1.58;0.90;;;11.00;83.10;;;;;;5061266;28;20041;-76
2022/04/21 08:21:25;;;;;;;2.10;0.80;;;11.00;83.00;;;;;;5059588;28;20448;-76
2022/04/21 08:23:51;;;;;;;2.22;0.88;;;11.10;83.00;;;;;;5061661;28;20544;-76
2022/04/21 08:34:30;;;;;;;2.67;1.00;;;11.30;80.00;;;;;;5062041;28;20040;-76
2022/04/21 08:36:56;;;;;;;1.55;0.82;;;11.40;80.30;;;;;;5043318;28;20055;-76
2022/04/21 08:39:22;;;;;;;2.63;1.23;;;11.40;79.20;;;;;;5043451;28;20032;-76
2022/04/21 08:41:51;;;;;;;2.20;1.00;;;11.50;78.70;;;;;;5042048;28;20048;-76
2022/04/21 08:44:19;;;;;;;2.05;1.20;;;11.50;78.60;;;;;;5056939;28;20034;-75
2022/04/21 08:46:46;;;;;;;1.58;0.80;;;11.50;80.20;;;;;;5056893;28;20063;-76
2022/04/21 08:49:15;;;;;;;2.20;0.70;;;11.60;79.40;;;;;;5056292;28;20044;-76
2022/04/21 08:51:41;;;;;;;1.63;0.80;;;11.70;78.20;;;;;;5055235;28;20098;-75
2022/04/21 08:54:07;;;;;;;1.92;0.90;;;11.70;78.40;;;;;;5053886;28;21007;-76
2022/04/21 08:56:33;;;;;;;2.72;0.95;;;11.80;78.10;;;;;;5041580;28;20102;-75
2022/04/21 08:58:58;;;;;;;2.70;0.95;;;11.80;77.60;;;;;;5040654;28;20067;-75
2022/04/21 09:01:25;;;;;;;2.63;1.20;;;11.90;78.20;;;;;;5061356;28;20406;-75
2022/04/21 09:03:50;;;;;;;2.25;0.90;;;11.90;78.00;;;;;;5043873;28;20041;-76
2022/04/21 09:06:16;;;;;;;1.27;0.75;;;12.00;77.20;;;;;;5045029;28;20037;-76
2022/04/21 09:08:42;;;;;;;1.63;0.80;;;12.00;77.10;;;;;;5061884;28;20048;-75
2022/04/21 09:11:09;;;;;;;1.77;1.10;;;12.10;76.50;;;;;;5046709;28;20036;-75
2022/04/21 09:13:40;;;;;;;2.15;1.05;;;12.10;76.20;;;;;;5047107;28;20082;-76
2022/04/21 09:16:08;;;;;;;3.13;1.33;;;12.20;75.30;;;;;;5060428;28;20036;-76
2022/04/21 09:18:38;;;;;;;1.70;1.00;;;12.30;76.30;;;;;;5059942;28;20119;-77
2022/04/21 09:21:09;;;;;;;2.60;0.88;;;12.30;73.90;;;;;;5059361;28;20036;-75
2022/04/21 09:23:34;;;;;;;1.40;0.88;;;12.40;71.80;;;;;;5062361;28;20051;-76
2022/04/21 09:26:07;;;;;;;2.78;1.13;;;12.40;73.40;;;;;;5063527;28;20033;-77
2022/04/21 09:28:33;;;;;;;2.25;0.90;;;12.40;71.60;;;;;;5060940;28;20228;-75
2022/04/21 09:31:00;;;;;;;2.65;0.80;;;12.40;73.20;;;;;;5062946;28;20481;-75
2022/04/21 09:33:33;;;;;;;2.03;1.05;;;12.50;72.30;;;;;;5048887;28;20401;-75
2022/04/21 09:36:04;;;;;;;1.42;0.80;;;12.50;70.90;;;;;;5061185;28;20591;-75
2022/04/21 09:38:30;;;;;;;1.90;1.15;;;12.50;72.50;;;;;;5043552;28;20059;-76
2022/04/21 09:41:11;;;;;;;1.50;0.80;;;12.50;73.50;;;;;;5044476;28;20049;-76
2022/04/21 09:43:38;;;;;;;1.65;0.82;;;12.50;71.80;;;;;;5060209;28;20417;-75
2022/04/21 09:46:15;;;;;;;2.10;0.88;;;12.50;74.10;;;;;;5063089;28;20039;-75
2022/04/21 09:48:41;;;;;;;1.15;0.70;;;12.60;71.50;;;;;;5039879;28;20515;-75
2022/04/21 09:51:22;;;;;;;2.80;0.77;;;12.70;71.90;;;;;;5060329;28;20032;-75
2022/04/21 09:54:02;;;;;;;2.58;0.80;;;12.70;71.90;;;;;;5042330;28;20048;-76
2022/04/21 09:56:36;;;;;;;1.02;0.68;;;12.70;72.30;;;;;;5062005;28;20044;-75
2022/04/21 09:59:12;;;;;;;1.52;0.82;;;12.70;71.20;;;;;;5039514;28;20033;-75
2022/04/21 10:01:41;;;;;;;1.42;0.82;;;12.70;70.30;;;;;;5038717;28;20479;-75
2022/04/21 10:04:11;;;;;;;1.20;0.63;;;12.80;71.60;;;;;;5039596;28;20045;-76
2022/04/21 10:06:38;;;;;;;1.85;0.98;;;12.80;71.70;;;;;;5058468;28;20041;-75
2022/04/21 10:09:05;;;;;;;1.63;0.88;;;12.70;71.90;;;;;;5061193;28;20402;-76
2022/04/21 10:11:31;;;;;;;1.40;0.65;;;12.80;71.60;;;;;;5042905;28;20044;-76
2022/04/21 10:13:57;;;;;;;3.88;1.23;;;12.80;70.80;;;;;;5055091;28;20041;-76
2022/04/21 10:16:24;;;;;;;1.60;0.93;;;12.90;71.10;;;;;;5058935;28;20040;-76
2022/04/21 10:18:52;;;;;;;3.00;1.00;;;12.90;71.60;;;;;;5060957;28;20090;-76
2022/04/21 10:21:54;;;;;;;2.20;1.00;;;13.00;70.90;;;;;;5043155;28;20063;-76
2022/04/21 10:24:24;;;;;;;1.88;0.85;;;13.10;64.10;;;;;;5019658;28;20353;-77
2022/04/21 10:26:50;;;;;;;2.20;0.98;;;13.10;68.60;;;;;;5042616;28;20052;-76
2022/04/21 10:29:17;;;;;;;5.57;1.08;;;13.10;69.00;;;;;;5048872;28;20045;-77
2022/04/21 10:31:51;;;;;;;2.05;0.82;;;13.10;70.20;;;;;;5064301;28;20120;-76
2022/04/21 10:34:44;;;;;;;2.85;1.20;;;13.20;67.70;;;;;;5060440;28;20040;-76
2022/04/21 10:37:14;;;;;;;2.10;0.85;;;13.30;67.10;;;;;;5057707;28;20049;-76
2022/04/21 10:40:00;;;;;;;2.92;1.35;;;13.30;67.40;;;;;;5062341;28;20119;-76
2022/04/21 10:42:26;;;;;;;;;;;13.30;68.20;;;;;;5059477;28;21810;-76
2022/04/21 10:44:53;;;;;;;1.80;1.00;;;13.30;65.20;;;;;;5042743;28;20006;-78
2022/04/21 10:47:33;;;;;;;2.17;1.00;;;13.40;68.80;;;;;;5056144;28;20036;-76
2022/04/21 10:50:10;;;;;;;2.88;1.20;;;13.40;67.40;;;;;;5037361;28;20032;-76
2022/04/21 10:57:48;;;;;;;3.00;1.13;;;13.50;68.00;;;;;;5058708;28;20135;-76
2022/04/21 11:00:28;;;;;;;2.58;0.75;;;13.50;67.30;;;;;;5059631;28;20056;-77
2022/04/21 11:03:05;;;;;;;1.70;0.93;;;13.60;64.40;;;;;;5058283;28;20066;-76
2022/04/21 11:05:33;;;;;;;2.70;1.27;;;13.60;65.10;;;;;;5058902;28;20037;-76
2022/04/21 11:08:00;;;;;;;3.25;1.30;;;13.60;65.70;;;;;;5055027;28;20036;-76
2022/04/21 11:10:39;;;;;;;1.77;0.90;;;13.60;66.70;;;;;;5042129;28;20068;-76
2022/04/21 11:13:06;;;;;;;1.95;0.95;;;13.60;67.30;;;;;;5059832;28;20130;-76
2022/04/21 11:15:33;;;;;;;1.77;1.00;;;13.70;67.20;;;;;;5058903;28;20044;-76
2022/04/21 11:18:00;;;;;;;2.35;1.10;;;13.70;67.40;;;;;;5041966;28;20344;-76
2022/04/21 11:20:25;;;;;;;2.55;1.10;;;13.80;66.80;;;;;;5042020;28;20040;-76
2022/04/21 11:22:51;;;;;;;2.25;1.23;;;13.80;66.30;;;;;;5034314;28;20044;-76
2022/04/21 11:25:17;;;;;;;3.30;1.00;;;13.80;66.60;;;;;;5057332;28;20039;-76
2022/04/21 11:27:44;;;;;;;2.67;1.00;;;13.70;66.80;;;;;;5038306;28;20430;-76
2022/04/21 11:30:14;;;;;;;1.90;1.02;;;13.70;67.60;;;;;;5040350;28;20036;-77
2022/04/21 11:32:50;;;;;;;3.22;1.10;;;13.80;66.90;;;;;;5056866;28;20047;-77
2022/04/21 11:35:16;;;;;;;2.25;0.93;;;13.80;66.20;;;;;;5043097;28;20120;-77
2022/04/21 11:37:54;;;;;;;2.60;1.35;;;13.90;66.30;;;;;;5058180;28;20397;-77
2022/04/21 11:40:29;;;;;;;2.33;1.27;;;13.90;64.90;;;;;;5059882;28;20079;-76
2022/04/21 11:42:56;;;;;;;2.13;1.23;;;14.00;64.80;;;;;;5034301;28;20509;-76
2022/04/21 11:45:24;;;;;;;1.85;0.77;;;14.00;64.90;;;;;;5040601;28;20051;-75
2022/04/21 11:47:50;;;;;;;1.20;0.90;;;14.00;65.50;;;;;;5059940;28;20055;-76
2022/04/21 11:50:34;;;;;;;2.83;1.30;;;14.10;65.60;;;;;;5058884;28;20073;-76
2022/04/21 11:53:12;;;;;;;2.03;1.10;;;14.10;62.90;;;;;;5057907;28;20040;-76
2022/04/21 11:55:38;;;;;;;2.47;1.08;;;14.20;63.90;;;;;;5059225;28;20075;-76
2022/04/21 11:58:03;;;;;;;2.13;1.00;;;14.30;65.30;;;;;;5056537;28;20525;-76
2022/04/21 12:08:45;;;;;;;4.07;1.10;;;14.50;63.00;;;;;;5055621;28;20040;-77
2022/04/21 12:11:13;;;;;;;1.90;1.15;;;14.60;63.60;;;;;;5059518;28;20032;-76
2022/04/21 12:13:39;;;;;;;3.65;1.42;;;14.60;63.20;;;;;;5057355;28;20045;-77
2022/04/21 12:16:22;;;;;;;1.67;1.15;;;14.70;63.60;;;;;;5058442;28;20131;-77
2022/04/21 12:18:48;;;;;;;2.05;1.15;;;14.70;63.80;;;;;;5060572;28;20402;-76
2022/04/21 12:21:14;;;;;;;1.25;0.90;;;14.70;64.90;;;;;;5057771;28;20058;-76
2022/04/21 12:23:39;;;;;;;2.58;1.40;;;14.70;64.50;;;;;;5051467;28;20048;-76
2022/04/21 12:26:07;;;;;;;2.33;0.98;;;14.70;64.40;;;;;;5050942;28;20079;-77
2022/04/21 12:28:48;;;;;;;2.05;1.20;;;14.70;63.70;;;;;;5040299;28;20025;-76
2022/04/21 12:31:19;;;;;;;2.35;1.10;;;14.70;62.90;;;;;;5040474;28;20477;-76
2022/04/21 12:33:44;;;;;;;2.10;1.08;;;14.70;64.00;;;;;;5037104;28;20067;-77
2022/04/21 12:36:10;;;;;;;3.25;1.30;;;14.70;64.90;;;;;;5058240;28;20124;-77
2022/04/21 12:38:55;;;;;;;1.45;0.73;;;14.60;64.30;;;;;;5055378;28;20062;-76
2022/04/21 12:41:21;;;;;;;1.70;0.93;;;14.60;61.90;;;;;;5055189;28;20055;-76
2022/04/21 12:43:48;;;;;;;1.80;1.02;;;14.60;63.90;;;;;;5041648;28;20049;-76
2022/04/21 12:46:14;;;;;;;3.00;1.42;;;14.70;63.50;;;;;;5042554;28;20032;-76
2022/04/21 12:48:47;;;;;;;1.90;1.08;;;14.70;63.90;;;;;;5062501;28;20078;-76
2022/04/21 12:51:20;;;;;;;2.75;1.23;;;14.70;64.00;;;;;;5045311;28;20086;-76
2022/04/21 12:53:57;;;;;;;2.42;1.23;;;14.70;63.50;;;;;;5040461;28;20052;-76
2022/04/21 12:56:34;;;;;;;2.67;1.38;;;14.80;63.10;;;;;;5061233;28;20048;-76
2022/04/21 12:59:01;;;;;;;2.92;1.38;;;14.70;62.80;;;;;;5061394;28;20075;-76
2022/04/21 13:01:27;;;;;;;3.15;1.50;;;14.70;63.90;;;;;;5042825;28;20473;-76
2022/04/21 13:03:53;;;;;;;3.65;1.73;;;14.80;63.50;;;;;;5062485;28;20048;-77
2022/04/21 13:06:27;;;;;;;2.80;1.27;;;14.90;63.10;;;;;;5043980;28;20059;-77
2022/04/21 13:08:53;;;;;;;1.35;0.90;;;14.90;64.00;;;;;;5041157;28;20036;-77
2022/04/21 13:11:18;;;;;;;3.05;1.13;;;15.00;63.70;;;;;;5061505;28;20107;-77
2022/04/21 13:13:44;;;;;;;4.72;1.70;;;15.00;63.20;;;;;;5060655;28;20638;-77
2022/04/21 13:16:09;;;;;;;2.70;1.33;;;14.90;63.60;;;;;;5062891;28;20048;-77
2022/04/21 13:18:35;;;;;;;2.83;1.52;;;14.90;63.70;;;;;;5061410;28;20040;-77
2022/04/21 13:23:45;;;;;;;2.53;1.20;;;15.00;64.00;;;;;;5059996;28;20048;-77
2022/04/21 13:26:10;;;;;;;2.00;1.27;;;15.00;63.70;;;;;;5045408;28;20041;-77
2022/04/21 13:28:36;;;;;;;4.25;1.45;;;15.00;63.50;;;;;;5062915;28;20043;-77
2022/04/21 13:33:45;;;;;;;2.33;1.45;;;15.10;63.50;;;;;;5061004;28;20204;-77
2022/04/21 13:36:11;;;;;;;4.07;1.48;;;15.10;63.00;;;;;;5059913;28;20569;-77
2022/04/21 13:38:37;;;;;;;2.90;1.75;;;15.10;62.40;;;;;;5061917;28;20709;-77
2022/04/21 13:41:03;;;;;;;2.70;1.42;;;15.10;62.70;;;;;;5036335;28;20041;-76
2022/04/21 13:43:29;;;;;;;2.97;1.30;;;15.10;62.30;;;;;;5041116;28;20052;-77
2022/04/21 13:45:56;;;;;;;2.47;1.73;;;15.10;62.60;;;;;;5040663;28;20049;-77
2022/04/21 13:48:21;;;;;;;2.17;1.15;;;15.20;62.90;;;;;;5044464;28;20123;-76
2022/04/21 13:50:47;;;;;;;2.97;1.38;;;15.10;63.10;;;;;;5042283;28;20127;-77